Time;durP1;ratioP1;P1;durP2;ratioP2;P2;SDS_P1;SDS_P2;PMS_P1;PMS_P2;Temp;Humidity;BMP_temperature;BMP_pressure;BME280_temperature;BME280_humidity;BME280_pressure;Samples;Min_cycle;Max_cycle;Signal;HPM_P1;HPM_P2
2023/08/22 00:02:27;;;;;;;7.20;3.97;;;;;;;18.39;100.00;101919.66;5277448;28;20050;-69
2023/08/22 00:04:58;;;;;;;10.32;4.55;;;;;;;18.36;100.00;101912.69;5275966;28;20448;-69
2023/08/22 00:07:30;;;;;;;7.25;4.22;;;;;;;18.39;100.00;101915.13;5276297;28;20448;-69
2023/08/22 00:10:01;;;;;;;7.28;4.07;;;;;;;18.36;100.00;101925.34;5274681;28;20040;-69
2023/08/22 00:12:33;;;;;;;10.57;4.60;;;;;;;18.38;100.00;101921.50;5276919;28;20615;-69
2023/08/22 00:15:09;;;;;;;8.68;4.10;;;;;;;18.42;100.00;101924.78;5276964;28;20031;-69
2023/08/22 00:17:41;;;;;;;6.82;4.43;;;;;;;18.46;100.00;101922.66;5271788;28;20027;-69
2023/08/22 00:20:13;;;;;;;10.07;4.60;;;;;;;18.47;100.00;101927.06;5275767;28;20063;-69
2023/08/22 00:22:44;;;;;;;7.63;4.72;;;;;;;18.45;100.00;101915.50;5277041;28;20081;-70
2023/08/22 00:25:16;;;;;;;7.72;4.13;;;;;;;18.44;100.00;101914.69;5275829;28;20385;-70
2023/08/22 00:27:47;;;;;;;6.57;4.47;;;;;;;18.40;100.00;101913.25;5274809;28;20032;-69
2023/08/22 00:30:19;;;;;;;6.07;4.10;;;;;;;18.41;100.00;101915.81;5272834;28;20025;-69
2023/08/22 00:32:50;;;;;;;9.00;4.57;;;;;;;18.40;100.00;101915.97;5278651;28;20466;-69
2023/08/22 00:35:24;;;;;;;7.55;4.53;;;;;;;18.40;100.00;101924.91;5275404;28;20027;-69
2023/08/22 00:37:56;;;;;;;7.30;4.60;;;;;;;18.38;100.00;101916.09;5278248;28;20187;-69
2023/08/22 00:40:27;;;;;;;9.48;4.32;;;;;;;18.64;100.00;101910.13;5276521;28;20434;-70
2023/08/22 00:42:59;;;;;;;7.85;4.30;;;;;;;18.44;100.00;101903.88;5280021;28;20493;-69
2023/08/22 00:45:30;;;;;;;8.98;3.95;;;;;;;18.51;100.00;101904.16;5280568;28;20035;-69
2023/08/22 00:48:02;;;;;;;9.20;5.10;;;;;;;18.44;100.00;101909.28;5283829;28;20451;-69
2023/08/22 00:50:34;;;;;;;7.45;4.45;;;;;;;18.47;100.00;101911.69;5287761;28;20028;-68
2023/08/22 00:53:07;;;;;;;7.53;4.82;;;;;;;18.46;100.00;101912.69;5284313;28;20493;-69
2023/08/22 00:55:38;;;;;;;7.30;4.60;;;;;;;18.45;100.00;101897.47;5283459;28;20374;-69
2023/08/22 00:58:10;;;;;;;8.60;4.70;;;;;;;18.36;100.00;101895.63;5280601;28;22040;-69
2023/08/22 01:00:42;;;;;;;6.07;4.05;;;;;;;18.31;100.00;101898.75;5279265;28;20492;-69
2023/08/22 01:03:13;;;;;;;7.38;4.97;;;;;;;18.29;100.00;101895.31;5285715;28;20035;-69
2023/08/22 01:05:53;;;;;;;7.53;4.72;;;;;;;18.26;100.00;101898.34;5277246;28;20027;-69
2023/08/22 01:08:30;;;;;;;10.27;4.55;;;;;;;18.23;100.00;101896.75;5277078;28;20123;-69
2023/08/22 01:11:29;;;;;;;7.80;5.32;;;;;;;18.36;100.00;101901.03;5277410;27;20060;-69
2023/08/22 01:14:04;;;;;;;9.10;4.75;;;;;;;18.20;100.00;101886.25;5281631;28;20050;-70
2023/08/22 01:16:36;;;;;;;8.27;5.10;;;;;;;18.15;100.00;101899.31;5286643;28;20348;-69
2023/08/22 01:19:11;;;;;;;11.05;6.28;;;;;;;18.09;100.00;101902.59;5273226;28;20139;-70
2023/08/22 01:21:51;;;;;;;8.98;5.25;;;;;;;18.06;100.00;101904.72;5272577;28;20725;-69
2023/08/22 01:24:22;;;;;;;10.00;5.68;;;;;;;18.02;100.00;101904.13;5273747;28;20093;-69
2023/08/22 01:26:54;;;;;;;12.05;6.13;;;;;;;18.01;100.00;101897.88;5270951;28;20421;-70
2023/08/22 01:29:37;;;;;;;9.10;6.95;;;;;;;18.02;100.00;101898.72;5275151;28;20034;-69
2023/08/22 01:32:17;;;;;;;11.27;6.72;;;;;;;18.13;100.00;101889.66;5271121;28;20111;-69
2023/08/22 01:34:54;;;;;;;12.90;6.57;;;;;;;18.18;100.00;101890.09;5275753;28;20027;-70
2023/08/22 01:37:26;;;;;;;11.30;7.07;;;;;;;18.18;100.00;101888.22;5278560;28;20494;-69
2023/08/22 01:40:00;;;;;;;9.65;7.07;;;;;;;18.19;100.00;101897.19;5277524;28;20491;-70
2023/08/22 01:42:31;;;;;;;;;;;;;;;18.41;100.00;101888.81;5275672;28;20861;-70
2023/08/22 01:45:03;;;;;;;10.63;6.50;;;;;;;18.17;100.00;101886.50;5281711;28;19998;-69
2023/08/22 01:47:35;;;;;;;14.40;7.03;;;;;;;18.18;100.00;101890.09;5279950;28;20040;-69
2023/08/22 01:50:07;;;;;;;11.02;6.70;;;;;;;18.21;100.00;101881.69;5277846;28;20031;-70
2023/08/22 01:52:39;;;;;;;11.30;6.90;;;;;;;18.30;100.00;101885.41;5279500;28;20469;-69
2023/08/22 01:55:12;;;;;;;12.77;6.80;;;;;;;18.37;100.00;101881.97;5284307;28;20032;-69
2023/08/22 01:57:43;;;;;;;12.77;7.13;;;;;;;18.45;100.00;101892.06;5283835;28;20402;-69
2023/08/22 02:00:14;;;;;;;13.20;6.80;;;;;;;18.27;100.00;101881.13;5280684;28;20032;-69
2023/08/22 02:02:46;;;;;;;13.18;7.43;;;;;;;18.26;100.00;101881.28;5277827;28;20066;-69
2023/08/22 02:05:17;;;;;;;9.90;6.60;;;;;;;18.22;100.00;101883.41;5284042;28;20024;-69
2023/08/22 02:07:49;;;;;;;10.63;6.53;;;;;;;18.28;100.00;101872.03;5280946;28;20457;-69
2023/08/22 02:10:20;;;;;;;11.00;5.72;;;;;;;18.39;100.00;101873.75;5275735;28;20478;-69
2023/08/22 02:12:52;;;;;;;9.15;6.45;;;;;;;18.33;100.00;101874.28;5283010;28;20390;-70
2023/08/22 02:15:23;;;;;;;9.20;6.22;;;;;;;18.42;100.00;101868.88;5275256;28;20666;-70
2023/08/22 02:17:54;;;;;;;9.65;6.78;;;;;;;18.35;100.00;101880.41;5280874;28;20032;-69
2023/08/22 02:20:26;;;;;;;11.68;6.10;;;;;;;18.42;100.00;101863.47;5281422;28;20029;-69
2023/08/22 02:22:58;;;;;;;9.23;6.13;;;;;;;18.42;100.00;101862.63;5281468;28;20078;-69
2023/08/22 02:25:32;;;;;;;8.23;5.80;;;;;;;18.31;100.00;101862.78;5279991;28;20032;-70
2023/08/22 02:28:04;;;;;;;7.93;5.80;;;;;;;18.18;100.00;101866.63;5278734;28;20047;-70
2023/08/22 02:30:35;;;;;;;6.45;5.13;;;;;;;18.28;100.00;101868.47;5280935;28;20037;-70
2023/08/22 02:33:07;;;;;;;11.73;6.05;;;;;;;18.14;100.00;101861.63;5277310;28;20055;-69
2023/08/22 02:35:39;;;;;;;9.05;5.60;;;;;;;18.17;100.00;101856.81;5281977;28;20104;-69
2023/08/22 02:38:10;;;;;;;11.15;6.18;;;;;;;18.09;100.00;101862.06;5279859;28;20024;-69
2023/08/22 02:40:42;;;;;;;10.15;5.50;;;;;;;18.13;100.00;101860.78;5277568;28;20102;-69
2023/08/22 02:43:13;;;;;;;6.20;4.82;;;;;;;18.20;100.00;101861.94;5274908;28;20031;-69
2023/08/22 02:45:45;;;;;;;7.75;5.30;;;;;;;18.18;100.00;101860.38;5285395;28;20055;-69
2023/08/22 02:48:17;;;;;;;8.65;5.55;;;;;;;18.17;100.00;101858.66;5285017;28;20033;-70
2023/08/22 02:50:49;;;;;;;7.70;5.20;;;;;;;18.20;100.00;101863.78;5281372;28;20028;-69
2023/08/22 02:53:21;;;;;;;8.95;5.47;;;;;;;18.12;100.00;101859.09;5283472;28;20228;-70
2023/08/22 02:55:52;;;;;;;9.00;5.05;;;;;;;18.20;100.00;101863.78;5283872;28;20432;-70
2023/08/22 02:58:25;;;;;;;8.38;5.68;;;;;;;18.09;100.00;101862.06;5285683;28;20038;-70
2023/08/22 03:00:56;;;;;;;6.47;4.88;;;;;;;18.05;100.00;101857.94;5285425;28;20053;-70
2023/08/22 03:03:28;;;;;;;8.88;5.55;;;;;;;18.03;100.00;101859.94;5285998;28;20383;-70
2023/08/22 03:06:00;;;;;;;9.68;6.10;;;;;;;17.91;100.00;101861.94;5281729;28;20050;-70
2023/08/22 03:08:32;;;;;;;9.35;5.10;;;;;;;18.03;100.00;101870.75;5287334;28;20028;-70
2023/08/22 03:11:03;;;;;;;10.13;5.95;;;;;;;17.90;100.00;101870.16;5284136;28;20028;-69
2023/08/22 03:13:35;;;;;;;7.30;5.63;;;;;;;17.76;100.00;101869.53;5288615;28;20035;-70
2023/08/22 03:16:06;;;;;;;9.30;5.40;;;;;;;17.74;100.00;101860.72;5283643;28;20031;-69
2023/08/22 03:18:38;;;;;;;8.55;5.50;;;;;;;17.88;100.00;101869.44;5283144;28;20098;-69
2023/08/22 03:21:09;;;;;;;10.18;5.45;;;;;;;17.83;100.00;101868.00;5282663;28;20858;-70
2023/08/22 03:23:41;;;;;;;9.57;5.72;;;;;;;17.90;100.00;101868.31;5285169;28;20032;-69
2023/08/22 03:26:13;;;;;;;8.10;5.50;;;;;;;17.85;100.00;101862.47;5283455;28;20430;-70
2023/08/22 03:28:44;;;;;;;9.75;5.82;;;;;;;17.97;100.00;101865.91;5285264;28;20028;-69
2023/08/22 03:31:16;;;;;;;8.85;5.95;;;;;;;17.73;100.00;101858.16;5289421;28;20053;-70
2023/08/22 03:33:47;;;;;;;12.13;6.93;;;;;;;17.88;100.00;101859.50;5284546;28;20032;-70
2023/08/22 03:36:20;;;;;;;9.30;6.93;;;;;;;17.76;100.00;101863.28;5293061;28;20019;-69
2023/08/22 03:38:51;;;;;;;12.10;7.72;;;;;;;17.73;100.00;101863.56;5282246;28;20107;-69
2023/08/22 03:41:22;;;;;;;12.55;7.50;;;;;;;17.69;100.00;101856.75;5284342;28;20102;-69
2023/08/22 03:43:54;;;;;;;11.25;7.72;;;;;;;17.70;100.00;101867.41;5284362;28;20423;-69
2023/08/22 03:46:25;;;;;;;12.77;8.45;;;;;;;17.61;100.00;101857.44;5284610;28;20655;-69
2023/08/22 03:48:57;;;;;;;13.05;8.23;;;;;;;17.58;100.00;101858.53;5280375;28;20063;-69
2023/08/22 03:51:30;;;;;;;13.00;8.10;;;;;;;17.60;100.00;101856.59;5292888;28;20031;-69
2023/08/22 03:54:01;;;;;;;12.65;8.00;;;;;;;17.52;100.00;101853.72;5283584;28;20126;-69
2023/08/22 03:56:33;;;;;;;11.25;7.63;;;;;;;17.51;100.00;101857.41;5295791;28;20180;-70
2023/08/22 03:59:04;;;;;;;12.98;8.73;;;;;;;17.44;100.00;101851.69;5283462;28;20052;-69
2023/08/22 04:01:35;;;;;;;14.85;7.80;;;;;;;17.66;100.00;101857.00;5294537;28;20055;-69
2023/08/22 04:04:07;;;;;;;12.20;8.48;;;;;;;17.50;100.00;101855.69;5290689;28;20048;-69
2023/08/22 04:06:38;;;;;;;10.55;8.02;;;;;;;17.41;100.00;101856.50;5291490;28;20039;-69
2023/08/22 04:09:10;;;;;;;11.55;7.72;;;;;;;17.42;100.00;101856.38;5287481;28;20021;-69
2023/08/22 04:11:43;;;;;;;15.05;8.85;;;;;;;17.33;100.00;101854.50;5290428;28;20028;-70
2023/08/22 04:14:14;;;;;;;12.77;8.13;;;;;;;17.47;100.00;101853.28;5282914;28;20039;-69
2023/08/22 04:16:46;;;;;;;13.85;8.25;;;;;;;17.35;100.00;101849.81;5284935;28;20036;-70
2023/08/22 04:19:17;;;;;;;11.07;8.05;;;;;;;17.35;100.00;101849.81;5278784;28;20016;-70
2023/08/22 04:21:49;;;;;;;12.48;7.50;;;;;;;17.42;100.00;101851.00;5282662;28;20023;-69
2023/08/22 04:24:20;;;;;;;12.20;8.32;;;;;;;17.46;100.00;101848.03;5276766;28;20105;-69
2023/08/22 04:26:52;;;;;;;13.57;8.27;;;;;;;17.46;100.00;101848.03;5280525;28;20032;-69
2023/08/22 04:29:23;;;;;;;11.48;8.30;;;;;;;17.43;100.00;101846.44;5274793;28;20591;-69
2023/08/22 04:31:58;;;;;;;12.02;8.25;;;;;;;17.42;100.00;101839.34;5277616;28;20406;-69
2023/08/22 04:34:29;;;;;;;11.02;8.85;;;;;;;17.26;100.00;101842.56;5278391;28;20024;-69
2023/08/22 04:37:01;;;;;;;11.55;8.50;;;;;;;17.24;100.00;101836.47;5275425;28;20171;-69
2023/08/22 04:39:32;;;;;;;11.05;8.05;;;;;;;17.29;100.00;101842.28;5277945;28;20024;-69
2023/08/22 04:42:04;;;;;;;14.38;8.75;;;;;;;17.24;100.00;101840.00;5281778;28;20032;-69
2023/08/22 04:44:35;;;;;;;12.43;8.98;;;;;;;17.25;100.00;101844.41;5280635;28;20139;-69
2023/08/22 04:47:06;;;;;;;11.80;9.35;;;;;;;17.18;100.00;101845.97;5277357;28;20056;-70
2023/08/22 04:49:38;;;;;;;12.80;8.82;;;;;;;17.32;100.00;101850.13;5278448;28;20024;-69
2023/08/22 04:52:09;;;;;;;13.93;10.07;;;;;;;17.21;100.00;101847.53;5277190;28;20034;-69
2023/08/22 04:54:41;;;;;;;12.52;9.55;;;;;;;17.16;100.00;101857.84;5288703;28;20328;-69
2023/08/22 04:57:12;;;;;;;13.88;9.30;;;;;;;17.09;100.00;101859.41;5285356;28;20024;-70
2023/08/22 04:59:44;;;;;;;11.82;9.18;;;;;;;17.15;100.00;101853.47;5289657;28;20028;-69
2023/08/22 05:02:15;;;;;;;10.70;9.27;;;;;;;16.99;100.00;101853.94;5288097;28;20044;-69
2023/08/22 05:04:47;;;;;;;12.60;10.82;;;;;;;16.96;100.00;101857.75;5293192;28;20442;-69
2023/08/22 05:07:18;;;;;;;13.35;9.77;;;;;;;16.98;100.00;101860.34;5295479;28;20039;-69
2023/08/22 05:09:50;;;;;;;12.77;10.93;;;;;;;16.94;100.00;101865.13;5288560;28;20031;-70
2023/08/22 05:12:22;;;;;;;12.30;9.60;;;;;;;17.03;100.00;101861.63;5287755;28;20379;-69
2023/08/22 05:14:56;;;;;;;13.05;10.48;;;;;;;16.97;100.00;101861.31;5291895;28;20092;-69
2023/08/22 05:17:27;;;;;;;13.10;9.50;;;;;;;17.06;100.00;101863.19;5285484;28;20032;-69
2023/08/22 05:19:59;;;;;;;14.98;10.35;;;;;;;17.14;100.00;101862.53;5284316;28;20057;-69
2023/08/22 05:22:30;;;;;;;13.80;10.38;;;;;;;17.18;100.00;101861.25;5294094;28;20649;-69
2023/08/22 05:25:04;;;;;;;12.55;10.10;;;;;;;17.10;100.00;101861.09;5282605;28;20062;-69
2023/08/22 05:27:35;;;;;;;13.75;11.20;;;;;;;17.04;100.00;101866.03;5282335;28;20061;-69
2023/08/22 05:30:07;;;;;;;14.90;11.32;;;;;;;17.00;100.00;101864.59;5281364;28;20032;-69
2023/08/22 05:32:39;;;;;;;14.20;11.63;;;;;;;17.08;100.00;101863.06;5278051;28;20020;-69
2023/08/22 05:35:11;;;;;;;16.77;11.93;;;;;;;17.13;100.00;101858.13;5279245;28;20089;-70
2023/08/22 05:37:42;;;;;;;15.73;12.55;;;;;;;17.01;100.00;101862.78;5282211;28;20028;-69
2023/08/22 05:40:14;;;;;;;16.15;11.77;;;;;;;16.98;100.00;101857.63;5279944;28;20050;-69
2023/08/22 05:42:45;;;;;;;13.93;12.02;;;;;;;16.99;100.00;101852.13;5285335;28;20028;-69
2023/08/22 05:45:17;;;;;;;15.38;12.05;;;;;;;17.00;100.00;101853.81;5291036;28;20027;-69
2023/08/22 05:47:48;;;;;;;17.88;13.23;;;;;;;17.19;100.00;101853.03;5281350;28;20127;-69
2023/08/22 05:50:20;;;;;;;23.65;12.48;;;;;;;17.02;100.00;101854.53;5280245;28;20128;-69
2023/08/22 05:52:51;;;;;;;20.15;12.60;;;;;;;17.22;100.00;101862.69;5279578;28;20031;-69
2023/08/22 05:55:23;;;;;;;19.55;12.68;;;;;;;17.19;100.00;101873.78;5281489;28;20051;-69
2023/08/22 05:57:55;;;;;;;16.52;11.70;;;;;;;17.11;100.00;101873.59;5278824;28;20106;-69
2023/08/22 06:00:26;;;;;;;13.57;11.73;;;;;;;17.13;100.00;101874.31;5290842;28;20460;-69
2023/08/22 06:02:58;;;;;;;16.58;11.00;;;;;;;17.14;100.00;101870.63;5288075;28;20585;-69
2023/08/22 06:05:29;;;;;;;17.02;10.80;;;;;;;17.16;100.00;101874.03;5292457;28;20351;-69
2023/08/22 06:08:01;;;;;;;17.23;11.07;;;;;;;17.21;100.00;101879.88;5296130;28;20024;-69
2023/08/22 06:10:32;;;;;;;18.42;10.95;;;;;;;17.32;100.00;101882.50;5289232;28;20016;-69
2023/08/22 06:13:03;;;;;;;17.55;11.15;;;;;;;17.25;100.00;101875.91;5290073;28;20128;-69
2023/08/22 06:15:35;;;;;;;16.45;10.60;;;;;;;17.28;100.00;101875.66;5282306;28;20039;-69
2023/08/22 06:18:07;;;;;;;16.23;11.15;;;;;;;17.32;100.00;101879.78;5283215;28;20662;-69
2023/08/22 06:20:39;;;;;;;16.05;10.48;;;;;;;17.39;100.00;101872.88;5294762;28;20039;-69
2023/08/22 06:23:10;;;;;;;13.40;9.35;;;;;;;17.36;100.00;101874.97;5281672;28;20053;-69
2023/08/22 06:25:41;;;;;;;14.98;10.02;;;;;;;17.39;100.00;101875.56;5277728;28;20039;-69
2023/08/22 06:28:13;;;;;;;14.23;9.57;;;;;;;17.48;100.00;101875.72;5279149;28;20488;-70
2023/08/22 06:30:44;;;;;;;13.15;8.70;;;;;;;17.51;100.00;101878.13;5277230;28;20098;-69
2023/08/22 06:33:16;;;;;;;11.48;8.52;;;;;;;17.58;100.00;101882.84;5282226;28;20220;-69
2023/08/22 06:35:47;;;;;;;14.18;9.35;;;;;;;17.56;100.00;101881.28;5282536;28;20024;-69
2023/08/22 06:38:19;;;;;;;12.90;9.20;;;;;;;17.66;100.00;101881.28;5281137;28;20107;-69
2023/08/22 06:40:50;;;;;;;11.52;7.78;;;;;;;17.60;100.00;101880.00;5279158;28;20692;-69
2023/08/22 06:43:24;;;;;;;10.25;8.23;;;;;;;17.60;100.00;101888.97;5277038;28;20060;-69
2023/08/22 06:45:57;;;;;;;12.60;8.10;;;;;;;17.73;100.00;101894.09;5279376;28;20036;-69
2023/08/22 06:48:28;;;;;;;12.68;7.72;;;;;;;17.72;100.00;101891.53;5279273;28;20028;-70
2023/08/22 06:51:00;;;;;;;14.55;7.80;;;;;;;17.78;100.00;101897.25;5279308;28;20039;-69
2023/08/22 06:53:31;;;;;;;8.63;6.25;;;;;;;17.85;100.00;101896.72;5291291;28;20125;-69
2023/08/22 06:56:03;;;;;;;10.43;6.60;;;;;;;18.00;100.00;101898.03;5293762;28;20048;-70
2023/08/22 06:58:34;;;;;;;12.32;6.68;;;;;;;18.05;100.00;101897.63;5288374;28;20406;-69
2023/08/22 07:01:07;;;;;;;10.20;6.80;;;;;;;18.12;100.00;101914.94;5284066;28;20056;-70
2023/08/22 07:03:38;;;;;;;9.25;6.15;;;;;;;18.33;100.00;101912.09;5288062;28;20027;-71
2023/08/22 07:06:10;;;;;;;8.88;6.38;;;;;;;18.47;100.00;101909.00;5298030;28;20024;-70
2023/08/22 07:08:41;;;;;;;8.13;5.18;;;;;;;18.54;100.00;101896.63;5288113;28;20039;-71
2023/08/22 07:11:12;;;;;;;9.50;5.75;;;;;;;18.69;100.00;101899.72;5291347;28;20027;-71
2023/08/22 07:13:44;;;;;;;9.88;5.22;;;;;;;18.84;100.00;101905.56;5287667;28;20016;-71
2023/08/22 07:16:15;;;;;;;9.48;5.20;;;;;;;18.93;100.00;101910.09;5285042;28;20024;-71
2023/08/22 07:18:47;;;;;;;9.07;4.82;;;;;;;19.05;100.00;101909.94;5289879;28;20460;-71
2023/08/22 07:21:18;;;;;;;8.30;3.28;;;;;;;19.14;100.00;101901.78;5282688;28;20028;-71
2023/08/22 07:23:50;;;;;;;7.43;4.03;;;;;;;19.24;100.00;101895.47;5291007;28;20127;-71
2023/08/22 07:26:21;;;;;;;5.75;3.15;;;;;;;19.31;100.00;101897.44;5287622;28;20067;-71
2023/08/22 07:28:52;;;;;;;6.38;3.22;;;;;;;19.43;100.00;101895.38;5285366;28;20525;-71
2023/08/22 07:31:24;;;;;;;6.70;3.85;;;;;;;19.51;100.00;101898.19;5282911;28;20047;-71
2023/08/22 07:33:56;;;;;;;8.77;4.43;;;;;;;19.70;100.00;101897.22;5289060;28;20023;-73
2023/08/22 07:36:27;;;;;;;11.68;5.53;;;;;;;19.82;100.00;101897.06;5296567;28;20386;-73
2023/08/22 07:38:59;;;;;;;9.45;4.63;;;;;;;20.00;100.00;101892.53;5295832;28;20107;-72
2023/08/22 07:41:30;;;;;;;10.05;5.53;;;;;;;20.11;100.00;101894.97;5288131;28;20069;-72
2023/08/22 07:44:01;;;;;;;11.43;6.32;;;;;;;20.25;100.00;101900.88;5282080;28;20113;-70
2023/08/22 07:46:33;;;;;;;9.57;5.82;;;;;;;20.44;100.00;101897.13;5285133;28;20027;-71
2023/08/22 07:49:04;;;;;;;12.95;6.13;;;;;;;20.59;100.00;101906.41;5289735;28;20078;-71
2023/08/22 07:51:36;;;;;;;10.75;6.28;;;;;;;20.67;100.00;101898.41;5285983;28;20908;-72
2023/08/22 07:54:07;;;;;;;10.90;6.03;;;;;;;20.80;100.00;101895.25;5288098;28;20047;-71
2023/08/22 07:56:39;;;;;;;10.25;6.18;;;;;;;20.92;100.00;101903.97;5290639;28;20024;-71
2023/08/22 07:59:13;;;;;;;10.75;6.38;;;;;;;20.97;100.00;101893.50;5296904;28;20017;-71
2023/08/22 08:01:44;;;;;;;10.23;6.95;;;;;;;21.03;100.00;101892.00;5289828;28;20490;-70
2023/08/22 08:04:16;;;;;;;14.23;6.93;;;;;;;21.10;100.00;101888.47;5297916;28;20082;-70
2023/08/22 08:06:48;;;;;;;12.07;6.88;;;;;;;21.08;100.00;101898.66;5290848;28;20039;-70
2023/08/22 08:09:19;;;;;;;12.77;7.28;;;;;;;21.16;100.00;101906.00;5302093;28;20032;-70
2023/08/22 08:11:50;;;;;;;11.35;6.15;;;;;;;21.29;100.00;101897.41;5285101;28;20102;-70
2023/08/22 08:14:22;;;;;;;10.68;6.20;;;;;;;21.38;100.00;101903.72;5290388;28;20028;-70
2023/08/22 08:16:53;;;;;;;11.18;6.45;;;;;;;21.51;100.00;101904.13;5287865;28;20110;-70
2023/08/22 08:19:26;;;;;;;9.75;6.32;;;;;;;21.54;100.00;101909.25;5286258;28;20055;-71
2023/08/22 08:21:57;;;;;;;10.75;5.35;;;;;;;21.63;100.00;101908.28;5290828;28;20024;-70
2023/08/22 08:24:29;;;;;;;9.63;5.28;;;;;;;21.70;100.00;101908.47;5288274;28;20039;-70
2023/08/22 08:27:00;;;;;;;8.65;4.70;;;;;;;21.68;100.00;101905.06;5285444;28;20067;-70
2023/08/22 08:29:32;;;;;;;11.55;4.63;;;;;;;21.76;100.00;101910.50;5290244;28;20020;-70
2023/08/22 08:32:03;;;;;;;10.23;4.85;;;;;;;21.85;100.00;101912.25;5300603;28;20374;-70
2023/08/22 08:34:35;;;;;;;12.20;4.65;;;;;;;21.91;100.00;101913.44;5287493;28;20032;-70
2023/08/22 08:37:06;;;;;;;8.90;4.82;;;;;;;21.96;100.00;101911.09;5282642;28;20382;-70
2023/08/22 08:39:38;;;;;;;9.80;4.47;;;;;;;21.99;100.00;101913.44;5282111;28;20414;-70
2023/08/22 08:42:13;;;;;;;8.35;4.00;;;;;;;22.01;100.00;101916.84;5287319;28;20116;-70
2023/08/22 08:44:44;;;;;;;9.70;5.10;;;;;;;22.09;100.00;101913.31;5297109;28;20040;-70
2023/08/22 08:47:16;;;;;;;9.82;5.00;;;;;;;22.10;100.00;101907.69;5292467;28;20039;-70
2023/08/22 08:49:48;;;;;;;7.70;4.28;;;;;;;22.23;100.00;101904.50;5300395;28;20487;-70
2023/08/22 08:52:20;;;;;;;8.52;4.30;;;;;;;22.29;100.00;101903.84;5293098;28;20020;-70
2023/08/22 08:54:52;;;;;;;7.78;4.05;;;;;;;22.35;100.00;101907.75;5296574;28;20423;-70
2023/08/22 08:57:23;;;;;;;10.85;4.10;;;;;;;22.42;100.00;101902.50;5296197;28;20028;-70
2023/08/22 08:59:55;;;;;;;7.95;3.70;;;;;;;22.48;100.00;101913.56;5298275;28;20496;-70
2023/08/22 09:02:27;;;;;;;9.80;4.05;;;;;;;22.51;100.00;101906.91;5288354;28;20097;-70
2023/08/22 09:04:58;;;;;;;8.18;4.57;;;;;;;22.57;100.00;101917.13;5289158;28;20071;-70
2023/08/22 09:07:30;;;;;;;10.73;4.65;;;;;;;22.57;100.00;101916.25;5293199;28;20024;-70
2023/08/22 09:10:02;;;;;;;9.80;4.78;;;;;;;22.54;100.00;101905.75;5289307;28;20039;-70
2023/08/22 09:12:35;;;;;;;14.43;6.40;;;;;;;22.52;100.00;101906.75;5298406;28;20027;-70
2023/08/22 09:15:09;;;;;;;11.95;6.78;;;;;;;22.48;100.00;101912.72;5292126;28;20486;-70
2023/08/22 09:17:40;;;;;;;10.23;6.03;;;;;;;22.43;100.00;101915.91;5294072;28;20027;-70
2023/08/22 09:20:12;;;;;;;11.15;6.68;;;;;;;22.35;100.00;101926.81;5287359;28;20032;-70
2023/08/22 09:22:44;;;;;;;12.60;7.45;;;;;;;22.32;100.00;101913.53;5290301;28;20016;-70
2023/08/22 09:25:16;;;;;;;15.85;8.27;;;;;;;22.30;100.00;101910.13;5299023;28;20032;-70
2023/08/22 09:27:52;;;;;;;12.77;7.63;;;;;;;22.23;100.00;101914.53;5293076;28;20358;-70
2023/08/22 09:30:25;;;;;;;14.30;8.32;;;;;;;22.21;100.00;101919.28;5292469;28;20035;-70
2023/08/22 09:33:00;;;;;;;13.65;7.47;;;;;;;22.11;100.00;101920.28;5288578;28;20370;-70
2023/08/22 09:35:32;;;;;;;16.38;8.35;;;;;;;22.13;100.00;101911.97;5300100;28;20023;-70
2023/08/22 09:38:10;;;;;;;12.35;7.57;;;;;;;22.19;100.00;101903.13;5290659;28;20033;-70
2023/08/22 09:40:52;;;;;;;13.25;8.20;;;;;;;22.37;100.00;101913.88;5292300;28;20476;-69
2023/08/22 09:43:28;;;;;;;13.07;7.35;;;;;;;22.45;100.00;101916.59;5287798;28;20035;-69
2023/08/22 09:46:01;;;;;;;12.38;7.38;;;;;;;22.55;100.00;101916.47;5286034;28;20557;-70
2023/08/22 09:48:35;;;;;;;11.15;6.65;;;;;;;22.65;100.00;101917.13;5299827;28;20024;-71
2023/08/22 09:51:09;;;;;;;13.65;6.45;;;;;;;22.79;100.00;101923.72;5286113;28;20572;-70
2023/08/22 09:53:41;;;;;;;11.73;7.13;;;;;;;22.82;100.00;101915.25;5284527;28;20074;-69
2023/08/22 09:56:13;;;;;;;10.77;6.25;;;;;;;22.87;100.00;101917.44;5302781;28;20019;-70
2023/08/22 09:58:46;;;;;;;10.95;5.28;;;;;;;22.93;100.00;101922.19;5300921;28;20038;-70
2023/08/22 10:01:19;;;;;;;9.13;5.38;;;;;;;22.83;100.00;101927.81;5294279;28;20452;-70
2023/08/22 10:03:55;;;;;;;11.10;4.93;;;;;;;22.82;100.00;101917.97;5298371;28;20494;-70
2023/08/22 10:06:31;;;;;;;8.88;3.80;;;;;;;22.89;100.00;101920.81;5291255;28;20020;-70
2023/08/22 10:09:07;;;;;;;9.60;3.95;;;;;;;22.91;100.00;101918.78;5303358;28;20040;-70
2023/08/22 10:11:48;;;;;;;8.60;3.90;;;;;;;22.98;100.00;101921.69;5288072;28;20165;-70
2023/08/22 10:14:28;;;;;;;8.40;3.90;;;;;;;23.08;100.00;101925.06;5292092;28;20088;-70
2023/08/22 10:17:00;;;;;;;7.97;3.65;;;;;;;23.20;100.00;101918.22;5283873;28;20024;-70
2023/08/22 10:19:32;;;;;;;8.63;3.10;;;;;;;23.29;100.00;101913.63;5292895;28;20031;-70
2023/08/22 10:22:09;;;;;;;7.80;3.03;;;;;;;23.36;100.00;101908.34;5290453;28;20458;-70
2023/08/22 10:24:42;;;;;;;5.45;2.78;;;;;;;23.39;100.00;101910.69;5279269;28;20035;-70
2023/08/22 10:27:16;;;;;;;7.78;2.80;;;;;;;23.43;100.00;101915.63;5288972;28;20025;-70
2023/08/22 10:30:18;;;;;;;8.32;3.53;;;;;;;23.54;100.00;101916.25;5288645;28;20024;-70
2023/08/22 10:33:03;;;;;;;6.10;2.83;;;;;;;23.39;100.00;101907.97;5286027;28;20114;-70
2023/08/22 10:35:35;;;;;;;8.10;2.90;;;;;;;23.32;100.00;101913.28;5295520;28;20037;-70
2023/08/22 10:38:18;;;;;;;5.50;2.97;;;;;;;23.35;100.00;101912.91;5283354;28;20066;-70
2023/08/22 10:40:54;;;;;;;5.75;2.20;;;;;;;23.35;100.00;101903.91;5284674;28;20048;-70
2023/08/22 10:43:38;;;;;;;5.38;2.20;;;;;;;23.48;100.00;101891.41;5288157;28;21387;-70
2023/08/22 10:46:09;;;;;;;7.43;2.63;;;;;;;23.56;100.00;101897.84;5282524;28;20032;-70
2023/08/22 10:48:41;;;;;;;8.32;2.97;;;;;;;23.62;100.00;101897.13;5288395;28;20109;-70
2023/08/22 10:51:12;;;;;;;4.40;2.10;;;;;;;23.68;100.00;101900.00;5289857;28;20039;-70
2023/08/22 10:53:44;;;;;;;7.43;2.13;;;;;;;23.77;100.00;101902.69;5295669;28;20066;-70
2023/08/22 10:56:23;;;;;;;5.68;2.40;;;;;;;23.73;100.00;101895.91;5305070;28;20024;-70
2023/08/22 10:58:59;;;;;;;6.25;2.05;;;;;;;23.98;100.00;101900.19;5286772;28;20650;-70
2023/08/22 11:01:31;;;;;;;6.70;2.45;;;;;;;24.00;100.00;101900.88;5292926;28;20555;-70
2023/08/22 11:04:04;;;;;;;4.65;2.50;;;;;;;23.97;100.00;101901.25;5290904;28;20036;-70
2023/08/22 11:06:37;;;;;;;4.95;2.28;;;;;;;24.02;100.00;101898.81;5289922;28;20931;-70
2023/08/22 11:09:11;;;;;;;3.88;1.50;;;;;;;24.06;100.00;101897.41;5292154;28;20061;-70
2023/08/22 11:11:42;;;;;;;3.83;1.50;;;;;;;24.13;100.00;101897.53;5294971;28;20070;-70
2023/08/22 11:14:13;;;;;;;3.97;0.80;;;;;;;24.18;100.00;101900.59;5290855;28;20024;-70
2023/08/22 11:16:45;;;;;;;2.30;0.80;;;;;;;24.20;100.00;101905.84;5296026;28;20395;-70
2023/08/22 11:19:17;;;;;;;3.63;1.10;;;;;;;24.25;100.00;101906.97;5293407;28;20024;-70
2023/08/22 11:21:49;;;;;;;3.50;0.90;;;;;;;24.29;100.00;101912.09;5298262;28;20085;-70
2023/08/22 11:24:21;;;;;;;3.42;0.80;;;;;;;24.30;100.00;101909.19;5292022;28;20445;-70
2023/08/22 11:26:52;;;;;;;3.42;0.70;;;;;;;24.29;100.00;101910.19;5288651;28;20036;-70
2023/08/22 11:29:24;;;;;;;3.78;0.50;;;;;;;24.32;100.00;101914.47;5289519;28;20387;-70
2023/08/22 11:31:55;;;;;;;2.40;0.47;;;;;;;24.28;100.00;101916.72;5294215;28;20025;-70
2023/08/22 11:34:27;;;;;;;3.03;0.60;;;;;;;24.27;100.00;101915.84;5286290;28;20067;-70
2023/08/22 11:36:59;;;;;;;3.88;0.60;;;;;;;24.32;100.00;101914.47;5286682;28;20047;-70